sensor_id;sensor_type;location;lat;lon;timestamp;P1;durP1;ratioP1;P2;durP2;ratioP2
30818;SDS011;17546;42.674;23.284;2024-02-26T00:01:29;34.75;;;17.77;;
30818;SDS011;17546;42.674;23.284;2024-02-26T00:03:57;30.42;;;16.58;;
30818;SDS011;17546;42.674;23.284;2024-02-26T00:06:24;31.33;;;16.13;;
30818;SDS011;17546;42.674;23.284;2024-02-26T00:08:50;41.22;;;16.92;;
30818;SDS011;17546;42.674;23.284;2024-02-26T00:11:15;37.22;;;17.50;;
30818;SDS011;17546;42.674;23.284;2024-02-26T00:13:41;31.63;;;15.75;;
30818;SDS011;17546;42.674;23.284;2024-02-26T00:16:06;31.65;;;15.88;;
30818;SDS011;17546;42.674;23.284;2024-02-26T00:18:32;32.83;;;16.77;;
30818;SDS011;17546;42.674;23.284;2024-02-26T00:20:58;32.88;;;17.48;;
30818;SDS011;17546;42.674;23.284;2024-02-26T00:23:23;36.13;;;18.33;;
30818;SDS011;17546;42.674;23.284;2024-02-26T00:25:49;36.72;;;18.15;;
30818;SDS011;17546;42.674;23.284;2024-02-26T00:28:14;33.70;;;17.52;;
30818;SDS011;17546;42.674;23.284;2024-02-26T00:30:40;33.40;;;17.92;;
30818;SDS011;17546;42.674;23.284;2024-02-26T00:33:06;32.75;;;17.35;;
30818;SDS011;17546;42.674;23.284;2024-02-26T00:35:31;36.75;;;18.33;;
30818;SDS011;17546;42.674;23.284;2024-02-26T00:37:56;36.90;;;18.38;;
30818;SDS011;17546;42.674;23.284;2024-02-26T00:40:23;33.28;;;18.70;;
30818;SDS011;17546;42.674;23.284;2024-02-26T00:42:49;34.20;;;18.02;;
30818;SDS011;17546;42.674;23.284;2024-02-26T00:45:15;35.05;;;18.08;;
30818;SDS011;17546;42.674;23.284;2024-02-26T00:47:41;36.15;;;17.55;;
30818;SDS011;17546;42.674;23.284;2024-02-26T00:50:07;35.75;;;17.17;;
30818;SDS011;17546;42.674;23.284;2024-02-26T00:52:33;38.40;;;17.63;;
30818;SDS011;17546;42.674;23.284;2024-02-26T00:54:59;36.90;;;16.42;;
30818;SDS011;17546;42.674;23.284;2024-02-26T00:57:25;31.10;;;16.25;;
30818;SDS011;17546;42.674;23.284;2024-02-26T00:59:50;36.38;;;16.45;;
30818;SDS011;17546;42.674;23.284;2024-02-26T01:02:16;31.98;;;16.58;;
30818;SDS011;17546;42.674;23.284;2024-02-26T01:04:41;34.63;;;16.17;;
30818;SDS011;17546;42.674;23.284;2024-02-26T01:07:07;31.40;;;16.35;;
30818;SDS011;17546;42.674;23.284;2024-02-26T01:09:32;31.23;;;16.15;;
30818;SDS011;17546;42.674;23.284;2024-02-26T01:11:58;27.90;;;15.43;;
30818;SDS011;17546;42.674;23.284;2024-02-26T01:14:23;32.05;;;16.10;;
30818;SDS011;17546;42.674;23.284;2024-02-26T01:16:49;33.30;;;16.10;;
30818;SDS011;17546;42.674;23.284;2024-02-26T01:19:14;29.42;;;14.98;;
30818;SDS011;17546;42.674;23.284;2024-02-26T01:21:40;32.17;;;15.98;;
30818;SDS011;17546;42.674;23.284;2024-02-26T01:24:06;36.67;;;15.32;;
30818;SDS011;17546;42.674;23.284;2024-02-26T01:26:32;32.00;;;15.90;;
30818;SDS011;17546;42.674;23.284;2024-02-26T01:28:57;35.40;;;15.85;;
30818;SDS011;17546;42.674;23.284;2024-02-26T01:31:23;33.78;;;15.85;;
30818;SDS011;17546;42.674;23.284;2024-02-26T01:33:48;32.90;;;16.38;;
30818;SDS011;17546;42.674;23.284;2024-02-26T01:36:14;30.00;;;15.13;;
30818;SDS011;17546;42.674;23.284;2024-02-26T01:38:39;32.35;;;16.75;;
30818;SDS011;17546;42.674;23.284;2024-02-26T01:41:05;28.75;;;15.73;;
30818;SDS011;17546;42.674;23.284;2024-02-26T01:43:31;34.05;;;16.13;;
30818;SDS011;17546;42.674;23.284;2024-02-26T01:45:57;28.98;;;15.07;;
30818;SDS011;17546;42.674;23.284;2024-02-26T01:48:23;31.75;;;16.42;;
30818;SDS011;17546;42.674;23.284;2024-02-26T01:50:48;29.88;;;15.98;;
30818;SDS011;17546;42.674;23.284;2024-02-26T01:53:14;34.10;;;16.58;;
30818;SDS011;17546;42.674;23.284;2024-02-26T01:55:41;32.22;;;16.02;;
30818;SDS011;17546;42.674;23.284;2024-02-26T01:58:07;27.88;;;16.08;;
30818;SDS011;17546;42.674;23.284;2024-02-26T02:00:32;33.95;;;16.13;;
30818;SDS011;17546;42.674;23.284;2024-02-26T02:02:58;32.22;;;16.55;;
30818;SDS011;17546;42.674;23.284;2024-02-26T02:05:24;28.67;;;15.57;;
30818;SDS011;17546;42.674;23.284;2024-02-26T02:07:51;29.52;;;15.88;;
30818;SDS011;17546;42.674;23.284;2024-02-26T02:10:18;34.50;;;16.15;;
30818;SDS011;17546;42.674;23.284;2024-02-26T02:12:48;33.40;;;16.65;;
30818;SDS011;17546;42.674;23.284;2024-02-26T02:15:13;35.05;;;16.48;;
30818;SDS011;17546;42.674;23.284;2024-02-26T02:17:39;31.77;;;16.48;;
30818;SDS011;17546;42.674;23.284;2024-02-26T02:20:08;32.60;;;15.30;;
30818;SDS011;17546;42.674;23.284;2024-02-26T02:22:41;29.50;;;15.32;;
30818;SDS011;17546;42.674;23.284;2024-02-26T02:25:06;38.65;;;15.88;;
30818;SDS011;17546;42.674;23.284;2024-02-26T02:27:32;30.83;;;15.82;;
30818;SDS011;17546;42.674;23.284;2024-02-26T02:29:58;29.55;;;15.48;;
30818;SDS011;17546;42.674;23.284;2024-02-26T02:32:24;31.48;;;15.85;;
30818;SDS011;17546;42.674;23.284;2024-02-26T02:34:50;30.38;;;15.27;;
30818;SDS011;17546;42.674;23.284;2024-02-26T02:37:16;29.80;;;15.68;;
30818;SDS011;17546;42.674;23.284;2024-02-26T02:39:41;34.05;;;15.63;;
30818;SDS011;17546;42.674;23.284;2024-02-26T02:42:08;26.45;;;15.80;;
30818;SDS011;17546;42.674;23.284;2024-02-26T02:44:34;38.65;;;16.52;;
30818;SDS011;17546;42.674;23.284;2024-02-26T02:46:59;33.15;;;15.75;;
30818;SDS011;17546;42.674;23.284;2024-02-26T02:49:25;29.13;;;15.55;;
30818;SDS011;17546;42.674;23.284;2024-02-26T02:51:51;33.60;;;16.50;;
30818;SDS011;17546;42.674;23.284;2024-02-26T02:54:18;30.15;;;15.60;;
30818;SDS011;17546;42.674;23.284;2024-02-26T02:56:43;30.60;;;15.95;;
30818;SDS011;17546;42.674;23.284;2024-02-26T02:59:09;28.58;;;15.90;;
30818;SDS011;17546;42.674;23.284;2024-02-26T03:01:34;33.92;;;16.90;;
30818;SDS011;17546;42.674;23.284;2024-02-26T03:04:00;33.90;;;16.48;;
30818;SDS011;17546;42.674;23.284;2024-02-26T03:06:25;32.58;;;16.23;;
30818;SDS011;17546;42.674;23.284;2024-02-26T03:08:52;32.15;;;16.67;;
30818;SDS011;17546;42.674;23.284;2024-02-26T03:11:19;33.40;;;17.02;;
30818;SDS011;17546;42.674;23.284;2024-02-26T03:13:45;35.83;;;17.27;;
30818;SDS011;17546;42.674;23.284;2024-02-26T03:16:10;31.98;;;17.10;;
30818;SDS011;17546;42.674;23.284;2024-02-26T03:18:38;28.33;;;16.10;;
30818;SDS011;17546;42.674;23.284;2024-02-26T03:21:04;30.13;;;16.63;;
30818;SDS011;17546;42.674;23.284;2024-02-26T03:23:29;31.67;;;17.67;;
30818;SDS011;17546;42.674;23.284;2024-02-26T03:25:57;32.05;;;16.52;;
30818;SDS011;17546;42.674;23.284;2024-02-26T03:28:23;32.50;;;16.63;;
30818;SDS011;17546;42.674;23.284;2024-02-26T03:30:48;32.05;;;17.23;;
30818;SDS011;17546;42.674;23.284;2024-02-26T03:33:14;32.53;;;16.85;;
30818;SDS011;17546;42.674;23.284;2024-02-26T03:35:39;34.08;;;17.33;;
30818;SDS011;17546;42.674;23.284;2024-02-26T03:38:05;36.15;;;18.02;;
30818;SDS011;17546;42.674;23.284;2024-02-26T03:40:30;31.30;;;17.35;;
30818;SDS011;17546;42.674;23.284;2024-02-26T03:42:56;36.45;;;17.13;;
30818;SDS011;17546;42.674;23.284;2024-02-26T03:45:22;36.17;;;18.55;;
30818;SDS011;17546;42.674;23.284;2024-02-26T03:47:48;36.00;;;18.15;;
30818;SDS011;17546;42.674;23.284;2024-02-26T03:50:13;32.78;;;16.90;;
30818;SDS011;17546;42.674;23.284;2024-02-26T03:52:39;38.00;;;18.35;;
30818;SDS011;17546;42.674;23.284;2024-02-26T03:55:04;32.80;;;18.65;;
30818;SDS011;17546;42.674;23.284;2024-02-26T03:57:30;38.53;;;20.98;;
30818;SDS011;17546;42.674;23.284;2024-02-26T03:59:56;36.53;;;20.73;;
30818;SDS011;17546;42.674;23.284;2024-02-26T04:02:21;41.47;;;22.20;;
30818;SDS011;17546;42.674;23.284;2024-02-26T04:04:48;39.05;;;19.85;;
30818;SDS011;17546;42.674;23.284;2024-02-26T04:07:14;34.20;;;19.65;;
30818;SDS011;17546;42.674;23.284;2024-02-26T04:09:39;38.03;;;19.35;;
30818;SDS011;17546;42.674;23.284;2024-02-26T04:12:05;36.25;;;19.58;;
30818;SDS011;17546;42.674;23.284;2024-02-26T04:14:30;42.38;;;19.00;;
30818;SDS011;17546;42.674;23.284;2024-02-26T04:16:56;32.88;;;18.10;;
30818;SDS011;17546;42.674;23.284;2024-02-26T04:19:21;34.63;;;17.88;;
30818;SDS011;17546;42.674;23.284;2024-02-26T04:21:47;32.90;;;17.58;;
30818;SDS011;17546;42.674;23.284;2024-02-26T04:24:13;36.45;;;17.60;;
30818;SDS011;17546;42.674;23.284;2024-02-26T04:26:38;30.85;;;17.02;;
30818;SDS011;17546;42.674;23.284;2024-02-26T04:29:04;33.25;;;17.38;;
30818;SDS011;17546;42.674;23.284;2024-02-26T04:31:29;35.40;;;17.75;;
30818;SDS011;17546;42.674;23.284;2024-02-26T04:33:57;36.45;;;17.38;;
30818;SDS011;17546;42.674;23.284;2024-02-26T04:36:23;35.58;;;17.80;;
30818;SDS011;17546;42.674;23.284;2024-02-26T04:38:50;31.25;;;18.38;;
30818;SDS011;17546;42.674;23.284;2024-02-26T04:41:16;37.60;;;18.77;;
30818;SDS011;17546;42.674;23.284;2024-02-26T04:43:42;31.67;;;18.13;;
30818;SDS011;17546;42.674;23.284;2024-02-26T04:46:07;37.33;;;19.55;;
30818;SDS011;17546;42.674;23.284;2024-02-26T04:48:34;39.53;;;19.17;;
30818;SDS011;17546;42.674;23.284;2024-02-26T04:51:00;37.50;;;20.30;;
30818;SDS011;17546;42.674;23.284;2024-02-26T04:53:26;43.35;;;19.85;;
30818;SDS011;17546;42.674;23.284;2024-02-26T04:55:51;37.28;;;20.17;;
30818;SDS011;17546;42.674;23.284;2024-02-26T04:58:17;38.47;;;20.83;;
30818;SDS011;17546;42.674;23.284;2024-02-26T05:00:42;49.55;;;21.70;;
30818;SDS011;17546;42.674;23.284;2024-02-26T05:03:09;38.20;;;22.13;;
30818;SDS011;17546;42.674;23.284;2024-02-26T05:05:38;41.75;;;23.75;;
30818;SDS011;17546;42.674;23.284;2024-02-26T05:08:04;49.53;;;21.55;;
30818;SDS011;17546;42.674;23.284;2024-02-26T05:10:32;46.60;;;22.80;;
30818;SDS011;17546;42.674;23.284;2024-02-26T05:12:58;44.42;;;22.20;;
30818;SDS011;17546;42.674;23.284;2024-02-26T05:15:24;46.33;;;22.73;;
30818;SDS011;17546;42.674;23.284;2024-02-26T05:17:49;54.42;;;24.85;;
30818;SDS011;17546;42.674;23.284;2024-02-26T05:20:15;53.17;;;23.98;;
30818;SDS011;17546;42.674;23.284;2024-02-26T05:22:40;47.25;;;25.05;;
30818;SDS011;17546;42.674;23.284;2024-02-26T05:25:06;47.63;;;25.27;;
30818;SDS011;17546;42.674;23.284;2024-02-26T05:27:32;49.13;;;25.83;;
30818;SDS011;17546;42.674;23.284;2024-02-26T05:29:58;56.88;;;27.77;;
30818;SDS011;17546;42.674;23.284;2024-02-26T05:32:23;68.68;;;31.02;;
30818;SDS011;17546;42.674;23.284;2024-02-26T05:34:49;70.10;;;31.40;;
30818;SDS011;17546;42.674;23.284;2024-02-26T05:37:14;57.35;;;31.20;;
30818;SDS011;17546;42.674;23.284;2024-02-26T05:39:40;77.25;;;34.78;;
30818;SDS011;17546;42.674;23.284;2024-02-26T05:42:05;67.82;;;35.15;;
30818;SDS011;17546;42.674;23.284;2024-02-26T05:44:30;60.45;;;35.17;;
30818;SDS011;17546;42.674;23.284;2024-02-26T05:46:56;67.75;;;36.92;;
30818;SDS011;17546;42.674;23.284;2024-02-26T05:49:22;76.05;;;36.20;;
30818;SDS011;17546;42.674;23.284;2024-02-26T05:51:48;68.88;;;34.67;;
30818;SDS011;17546;42.674;23.284;2024-02-26T05:54:13;60.33;;;33.45;;
30818;SDS011;17546;42.674;23.284;2024-02-26T05:56:39;60.00;;;33.85;;
30818;SDS011;17546;42.674;23.284;2024-02-26T05:59:04;67.45;;;34.22;;
30818;SDS011;17546;42.674;23.284;2024-02-26T06:01:31;63.00;;;32.47;;
30818;SDS011;17546;42.674;23.284;2024-02-26T06:03:58;64.05;;;33.08;;
30818;SDS011;17546;42.674;23.284;2024-02-26T06:06:23;60.03;;;31.48;;
30818;SDS011;17546;42.674;23.284;2024-02-26T06:08:49;62.28;;;31.77;;
30818;SDS011;17546;42.674;23.284;2024-02-26T06:11:14;60.25;;;33.05;;
30818;SDS011;17546;42.674;23.284;2024-02-26T06:13:40;62.33;;;34.00;;
30818;SDS011;17546;42.674;23.284;2024-02-26T06:16:05;64.13;;;35.72;;
30818;SDS011;17546;42.674;23.284;2024-02-26T06:18:33;67.90;;;37.72;;
30818;SDS011;17546;42.674;23.284;2024-02-26T06:20:58;71.47;;;41.08;;
30818;SDS011;17546;42.674;23.284;2024-02-26T06:23:24;65.53;;;37.47;;
30818;SDS011;17546;42.674;23.284;2024-02-26T06:25:51;64.28;;;35.97;;
30818;SDS011;17546;42.674;23.284;2024-02-26T06:28:16;59.05;;;33.90;;
30818;SDS011;17546;42.674;23.284;2024-02-26T06:30:42;61.38;;;33.85;;
30818;SDS011;17546;42.674;23.284;2024-02-26T06:33:07;59.25;;;33.83;;
30818;SDS011;17546;42.674;23.284;2024-02-26T06:35:33;61.88;;;30.83;;
30818;SDS011;17546;42.674;23.284;2024-02-26T06:37:58;55.58;;;31.50;;
30818;SDS011;17546;42.674;23.284;2024-02-26T06:40:24;51.05;;;30.95;;
30818;SDS011;17546;42.674;23.284;2024-02-26T06:42:50;57.97;;;30.83;;
30818;SDS011;17546;42.674;23.284;2024-02-26T06:45:17;62.60;;;31.08;;
30818;SDS011;17546;42.674;23.284;2024-02-26T06:47:44;63.30;;;32.33;;
30818;SDS011;17546;42.674;23.284;2024-02-26T06:50:11;57.28;;;32.53;;
30818;SDS011;17546;42.674;23.284;2024-02-26T06:52:37;55.10;;;31.48;;
30818;SDS011;17546;42.674;23.284;2024-02-26T06:55:03;57.03;;;31.85;;
30818;SDS011;17546;42.674;23.284;2024-02-26T06:57:30;56.75;;;26.38;;
30818;SDS011;17546;42.674;23.284;2024-02-26T06:59:55;48.50;;;24.83;;
30818;SDS011;17546;42.674;23.284;2024-02-26T07:02:21;52.40;;;25.33;;
30818;SDS011;17546;42.674;23.284;2024-02-26T07:04:46;47.83;;;24.52;;
30818;SDS011;17546;42.674;23.284;2024-02-26T07:07:12;50.08;;;23.23;;
30818;SDS011;17546;42.674;23.284;2024-02-26T07:09:37;49.05;;;22.45;;
30818;SDS011;17546;42.674;23.284;2024-02-26T07:12:03;43.10;;;21.58;;
30818;SDS011;17546;42.674;23.284;2024-02-26T07:14:28;44.60;;;20.75;;
30818;SDS011;17546;42.674;23.284;2024-02-26T07:16:54;43.67;;;19.63;;
30818;SDS011;17546;42.674;23.284;2024-02-26T07:19:21;39.97;;;19.13;;
30818;SDS011;17546;42.674;23.284;2024-02-26T07:21:46;39.88;;;19.23;;
30818;SDS011;17546;42.674;23.284;2024-02-26T07:24:11;36.22;;;18.15;;
30818;SDS011;17546;42.674;23.284;2024-02-26T07:26:37;46.97;;;23.60;;
30818;SDS011;17546;42.674;23.284;2024-02-26T07:29:03;66.70;;;27.85;;
30818;SDS011;17546;42.674;23.284;2024-02-26T07:31:30;43.97;;;22.98;;
30818;SDS011;17546;42.674;23.284;2024-02-26T07:33:55;46.85;;;24.85;;
30818;SDS011;17546;42.674;23.284;2024-02-26T07:36:21;52.40;;;26.92;;
30818;SDS011;17546;42.674;23.284;2024-02-26T07:38:46;63.25;;;29.38;;
30818;SDS011;17546;42.674;23.284;2024-02-26T07:41:12;58.88;;;30.55;;
30818;SDS011;17546;42.674;23.284;2024-02-26T07:43:37;63.80;;;35.38;;
30818;SDS011;17546;42.674;23.284;2024-02-26T07:46:03;121.57;;;78.20;;
30818;SDS011;17546;42.674;23.284;2024-02-26T07:48:29;155.00;;;93.20;;
30818;SDS011;17546;42.674;23.284;2024-02-26T07:50:54;124.05;;;76.97;;
30818;SDS011;17546;42.674;23.284;2024-02-26T07:53:20;116.88;;;65.18;;
30818;SDS011;17546;42.674;23.284;2024-02-26T07:55:45;102.57;;;54.15;;
30818;SDS011;17546;42.674;23.284;2024-02-26T07:58:10;98.25;;;52.35;;
30818;SDS011;17546;42.674;23.284;2024-02-26T08:00:36;108.45;;;50.00;;
30818;SDS011;17546;42.674;23.284;2024-02-26T08:03:01;85.63;;;43.10;;
30818;SDS011;17546;42.674;23.284;2024-02-26T08:05:27;75.90;;;38.58;;
30818;SDS011;17546;42.674;23.284;2024-02-26T08:07:52;77.68;;;36.25;;
30818;SDS011;17546;42.674;23.284;2024-02-26T08:10:19;72.85;;;35.10;;
30818;SDS011;17546;42.674;23.284;2024-02-26T08:12:45;78.63;;;34.65;;
30818;SDS011;17546;42.674;23.284;2024-02-26T08:15:10;77.82;;;36.70;;
30818;SDS011;17546;42.674;23.284;2024-02-26T08:17:36;81.47;;;38.53;;
30818;SDS011;17546;42.674;23.284;2024-02-26T08:20:02;76.95;;;38.75;;
30818;SDS011;17546;42.674;23.284;2024-02-26T08:22:28;78.07;;;37.22;;
30818;SDS011;17546;42.674;23.284;2024-02-26T08:24:53;83.95;;;37.58;;
30818;SDS011;17546;42.674;23.284;2024-02-26T08:27:18;77.47;;;37.10;;
30818;SDS011;17546;42.674;23.284;2024-02-26T08:29:44;79.45;;;36.47;;
30818;SDS011;17546;42.674;23.284;2024-02-26T08:32:10;83.05;;;37.05;;
30818;SDS011;17546;42.674;23.284;2024-02-26T08:34:35;91.53;;;38.17;;
30818;SDS011;17546;42.674;23.284;2024-02-26T08:37:01;92.20;;;37.28;;
30818;SDS011;17546;42.674;23.284;2024-02-26T08:39:27;116.93;;;68.13;;
30818;SDS011;17546;42.674;23.284;2024-02-26T08:41:53;84.25;;;50.70;;
30818;SDS011;17546;42.674;23.284;2024-02-26T08:44:19;86.25;;;49.35;;
30818;SDS011;17546;42.674;23.284;2024-02-26T08:46:44;103.63;;;48.25;;
30818;SDS011;17546;42.674;23.284;2024-02-26T08:49:11;89.13;;;42.42;;
30818;SDS011;17546;42.674;23.284;2024-02-26T08:51:41;83.90;;;39.28;;
30818;SDS011;17546;42.674;23.284;2024-02-26T08:54:08;75.93;;;36.50;;
30818;SDS011;17546;42.674;23.284;2024-02-26T08:56:33;74.30;;;36.38;;
30818;SDS011;17546;42.674;23.284;2024-02-26T08:58:59;75.85;;;35.67;;
30818;SDS011;17546;42.674;23.284;2024-02-26T09:01:28;83.40;;;35.58;;
30818;SDS011;17546;42.674;23.284;2024-02-26T09:03:57;69.85;;;35.17;;
30818;SDS011;17546;42.674;23.284;2024-02-26T09:06:23;70.30;;;34.85;;
30818;SDS011;17546;42.674;23.284;2024-02-26T09:08:48;83.63;;;36.05;;
30818;SDS011;17546;42.674;23.284;2024-02-26T09:11:14;76.43;;;37.28;;
30818;SDS011;17546;42.674;23.284;2024-02-26T09:13:39;83.47;;;39.90;;
30818;SDS011;17546;42.674;23.284;2024-02-26T09:16:05;78.65;;;39.72;;
30818;SDS011;17546;42.674;23.284;2024-02-26T09:18:31;80.93;;;39.08;;
30818;SDS011;17546;42.674;23.284;2024-02-26T09:20:57;76.50;;;37.33;;
30818;SDS011;17546;42.674;23.284;2024-02-26T09:23:22;81.30;;;37.00;;
30818;SDS011;17546;42.674;23.284;2024-02-26T09:25:48;75.50;;;35.97;;
30818;SDS011;17546;42.674;23.284;2024-02-26T09:28:13;72.15;;;36.90;;
30818;SDS011;17546;42.674;23.284;2024-02-26T09:30:42;91.00;;;36.13;;
30818;SDS011;17546;42.674;23.284;2024-02-26T09:33:08;63.35;;;28.30;;
30818;SDS011;17546;42.674;23.284;2024-02-26T09:35:33;40.03;;;21.13;;
30818;SDS011;17546;42.674;23.284;2024-02-26T09:37:59;37.08;;;16.90;;
30818;SDS011;17546;42.674;23.284;2024-02-26T09:40:24;30.33;;;15.85;;
30818;SDS011;17546;42.674;23.284;2024-02-26T09:42:50;23.52;;;11.05;;
30818;SDS011;17546;42.674;23.284;2024-02-26T09:45:24;28.23;;;11.85;;
30818;SDS011;17546;42.674;23.284;2024-02-26T09:47:52;25.77;;;9.20;;
30818;SDS011;17546;42.674;23.284;2024-02-26T09:50:21;23.77;;;9.38;;
30818;SDS011;17546;42.674;23.284;2024-02-26T09:52:51;21.42;;;8.02;;
30818;SDS011;17546;42.674;23.284;2024-02-26T09:55:18;15.25;;;7.00;;
30818;SDS011;17546;42.674;23.284;2024-02-26T09:57:45;21.85;;;7.47;;
30818;SDS011;17546;42.674;23.284;2024-02-26T10:00:17;26.20;;;10.20;;
30818;SDS011;17546;42.674;23.284;2024-02-26T10:02:46;15.15;;;6.88;;
30818;SDS011;17546;42.674;23.284;2024-02-26T10:05:14;15.38;;;6.72;;
30818;SDS011;17546;42.674;23.284;2024-02-26T10:07:42;11.80;;;6.60;;
30818;SDS011;17546;42.674;23.284;2024-02-26T10:10:09;17.00;;;6.75;;
30818;SDS011;17546;42.674;23.284;2024-02-26T10:12:35;18.23;;;7.30;;
30818;SDS011;17546;42.674;23.284;2024-02-26T10:15:01;13.45;;;6.63;;
30818;SDS011;17546;42.674;23.284;2024-02-26T10:17:26;16.55;;;6.75;;
30818;SDS011;17546;42.674;23.284;2024-02-26T10:19:53;21.10;;;6.75;;
30818;SDS011;17546;42.674;23.284;2024-02-26T10:22:21;14.30;;;6.75;;
30818;SDS011;17546;42.674;23.284;2024-02-26T10:24:47;17.70;;;6.47;;
30818;SDS011;17546;42.674;23.284;2024-02-26T10:27:13;15.65;;;6.75;;
30818;SDS011;17546;42.674;23.284;2024-02-26T10:29:40;88.55;;;9.85;;
30818;SDS011;17546;42.674;23.284;2024-02-26T10:32:08;22.40;;;7.45;;
30818;SDS011;17546;42.674;23.284;2024-02-26T10:34:34;18.48;;;6.57;;
30818;SDS011;17546;42.674;23.284;2024-02-26T10:37:01;13.80;;;6.28;;
30818;SDS011;17546;42.674;23.284;2024-02-26T10:39:28;13.38;;;6.40;;
30818;SDS011;17546;42.674;23.284;2024-02-26T10:41:53;11.25;;;6.13;;
30818;SDS011;17546;42.674;23.284;2024-02-26T10:44:19;19.55;;;6.18;;
30818;SDS011;17546;42.674;23.284;2024-02-26T10:46:45;11.40;;;6.40;;
30818;SDS011;17546;42.674;23.284;2024-02-26T10:49:15;14.77;;;6.40;;
30818;SDS011;17546;42.674;23.284;2024-02-26T10:51:45;13.15;;;6.38;;
30818;SDS011;17546;42.674;23.284;2024-02-26T10:54:19;12.32;;;6.88;;
30818;SDS011;17546;42.674;23.284;2024-02-26T10:56:46;18.13;;;6.18;;
30818;SDS011;17546;42.674;23.284;2024-02-26T10:59:14;13.23;;;5.80;;
30818;SDS011;17546;42.674;23.284;2024-02-26T11:01:45;9.38;;;5.18;;
30818;SDS011;17546;42.674;23.284;2024-02-26T11:04:13;15.18;;;5.78;;
30818;SDS011;17546;42.674;23.284;2024-02-26T11:06:39;21.67;;;6.22;;
30818;SDS011;17546;42.674;23.284;2024-02-26T11:09:06;19.42;;;6.60;;
30818;SDS011;17546;42.674;23.284;2024-02-26T11:11:33;12.18;;;6.13;;
30818;SDS011;17546;42.674;23.284;2024-02-26T11:14:02;14.07;;;6.32;;
30818;SDS011;17546;42.674;23.284;2024-02-26T11:16:28;14.95;;;6.18;;
30818;SDS011;17546;42.674;23.284;2024-02-26T11:18:55;12.95;;;6.40;;
30818;SDS011;17546;42.674;23.284;2024-02-26T11:21:21;11.02;;;5.72;;
30818;SDS011;17546;42.674;23.284;2024-02-26T11:24:03;9.85;;;5.80;;
30818;SDS011;17546;42.674;23.284;2024-02-26T11:26:31;16.58;;;5.50;;
30818;SDS011;17546;42.674;23.284;2024-02-26T11:28:59;13.88;;;6.10;;
30818;SDS011;17546;42.674;23.284;2024-02-26T11:31:25;16.95;;;5.90;;
30818;SDS011;17546;42.674;23.284;2024-02-26T11:33:53;17.15;;;6.13;;
30818;SDS011;17546;42.674;23.284;2024-02-26T11:36:19;15.02;;;5.93;;
30818;SDS011;17546;42.674;23.284;2024-02-26T11:38:46;11.02;;;5.50;;
30818;SDS011;17546;42.674;23.284;2024-02-26T11:41:14;17.00;;;5.90;;
30818;SDS011;17546;42.674;23.284;2024-02-26T11:43:53;16.10;;;5.70;;
30818;SDS011;17546;42.674;23.284;2024-02-26T11:48:58;10.55;;;5.68;;
30818;SDS011;17546;42.674;23.284;2024-02-26T11:51:28;15.82;;;5.65;;
30818;SDS011;17546;42.674;23.284;2024-02-26T11:53:58;14.38;;;7.85;;
30818;SDS011;17546;42.674;23.284;2024-02-26T11:56:24;17.67;;;6.28;;
30818;SDS011;17546;42.674;23.284;2024-02-26T11:59:37;13.02;;;5.70;;
30818;SDS011;17546;42.674;23.284;2024-02-26T12:02:02;8.50;;;5.47;;
30818;SDS011;17546;42.674;23.284;2024-02-26T12:04:29;14.75;;;5.43;;
30818;SDS011;17546;42.674;23.284;2024-02-26T12:09:31;11.93;;;5.30;;
30818;SDS011;17546;42.674;23.284;2024-02-26T12:11:58;11.75;;;5.20;;
30818;SDS011;17546;42.674;23.284;2024-02-26T12:14:27;10.85;;;5.55;;
30818;SDS011;17546;42.674;23.284;2024-02-26T12:16:54;9.90;;;5.20;;
30818;SDS011;17546;42.674;23.284;2024-02-26T12:19:21;13.10;;;4.90;;
30818;SDS011;17546;42.674;23.284;2024-02-26T12:21:48;10.48;;;5.38;;
30818;SDS011;17546;42.674;23.284;2024-02-26T12:24:17;16.27;;;5.13;;
30818;SDS011;17546;42.674;23.284;2024-02-26T12:26:43;16.95;;;5.60;;
30818;SDS011;17546;42.674;23.284;2024-02-26T12:29:09;14.43;;;5.18;;
30818;SDS011;17546;42.674;23.284;2024-02-26T12:31:36;15.35;;;6.13;;
30818;SDS011;17546;42.674;23.284;2024-02-26T12:34:02;11.60;;;5.00;;
30818;SDS011;17546;42.674;23.284;2024-02-26T12:36:29;17.63;;;5.28;;
30818;SDS011;17546;42.674;23.284;2024-02-26T12:38:55;12.60;;;5.20;;
30818;SDS011;17546;42.674;23.284;2024-02-26T12:41:21;13.02;;;5.05;;
30818;SDS011;17546;42.674;23.284;2024-02-26T12:43:47;11.35;;;4.72;;
30818;SDS011;17546;42.674;23.284;2024-02-26T12:46:13;12.45;;;5.03;;
30818;SDS011;17546;42.674;23.284;2024-02-26T12:48:42;14.57;;;4.95;;
30818;SDS011;17546;42.674;23.284;2024-02-26T12:51:09;16.95;;;4.90;;
30818;SDS011;17546;42.674;23.284;2024-02-26T12:53:35;10.80;;;4.78;;
30818;SDS011;17546;42.674;23.284;2024-02-26T12:56:02;13.65;;;5.03;;
30818;SDS011;17546;42.674;23.284;2024-02-26T12:58:29;22.38;;;5.15;;
30818;SDS011;17546;42.674;23.284;2024-02-26T13:00:56;13.32;;;5.15;;
30818;SDS011;17546;42.674;23.284;2024-02-26T13:03:22;16.42;;;5.28;;
30818;SDS011;17546;42.674;23.284;2024-02-26T13:05:48;10.43;;;5.53;;
30818;SDS011;17546;42.674;23.284;2024-02-26T13:08:21;11.98;;;5.25;;
30818;SDS011;17546;42.674;23.284;2024-02-26T13:10:47;11.30;;;5.00;;
30818;SDS011;17546;42.674;23.284;2024-02-26T13:13:17;13.77;;;5.38;;
30818;SDS011;17546;42.674;23.284;2024-02-26T13:15:43;11.25;;;4.57;;
30818;SDS011;17546;42.674;23.284;2024-02-26T13:18:15;12.57;;;4.82;;
30818;SDS011;17546;42.674;23.284;2024-02-26T13:20:41;10.73;;;4.55;;
30818;SDS011;17546;42.674;23.284;2024-02-26T13:23:07;11.65;;;4.75;;
30818;SDS011;17546;42.674;23.284;2024-02-26T13:25:36;9.70;;;4.60;;
30818;SDS011;17546;42.674;23.284;2024-02-26T13:28:05;14.93;;;5.00;;
30818;SDS011;17546;42.674;23.284;2024-02-26T13:30:34;9.15;;;4.93;;
30818;SDS011;17546;42.674;23.284;2024-02-26T13:33:07;9.32;;;4.50;;
30818;SDS011;17546;42.674;23.284;2024-02-26T13:35:36;9.40;;;4.97;;
30818;SDS011;17546;42.674;23.284;2024-02-26T13:38:04;16.88;;;4.40;;
30818;SDS011;17546;42.674;23.284;2024-02-26T13:40:29;18.23;;;4.93;;
30818;SDS011;17546;42.674;23.284;2024-02-26T13:42:55;24.08;;;5.72;;
30818;SDS011;17546;42.674;23.284;2024-02-26T13:45:20;13.07;;;4.97;;
30818;SDS011;17546;42.674;23.284;2024-02-26T13:47:46;10.30;;;4.28;;
30818;SDS011;17546;42.674;23.284;2024-02-26T13:50:11;18.27;;;4.88;;
30818;SDS011;17546;42.674;23.284;2024-02-26T13:52:37;13.75;;;4.55;;
30818;SDS011;17546;42.674;23.284;2024-02-26T13:55:02;21.08;;;4.93;;
30818;SDS011;17546;42.674;23.284;2024-02-26T13:57:28;10.43;;;4.70;;
30818;SDS011;17546;42.674;23.284;2024-02-26T13:59:54;12.82;;;4.75;;
30818;SDS011;17546;42.674;23.284;2024-02-26T14:02:21;11.05;;;4.32;;
30818;SDS011;17546;42.674;23.284;2024-02-26T14:04:47;14.38;;;5.15;;
30818;SDS011;17546;42.674;23.284;2024-02-26T14:07:12;14.13;;;4.68;;
30818;SDS011;17546;42.674;23.284;2024-02-26T14:09:38;9.48;;;4.40;;
30818;SDS011;17546;42.674;23.284;2024-02-26T14:12:04;12.43;;;4.90;;
30818;SDS011;17546;42.674;23.284;2024-02-26T14:14:30;15.30;;;4.40;;